createdAt,value
2019-05-30T00:00:26.167Z,12.74
2019-05-30T00:05:30.355Z,12.62
2019-05-30T00:10:34.541Z,12.55
2019-05-30T00:15:38.766Z,12.50
2019-05-30T00:20:43.003Z,12.46
2019-05-30T00:25:47.189Z,12.31
2019-05-30T00:30:51.722Z,12.26
2019-05-30T00:35:55.921Z,12.10
2019-05-30T00:41:00.122Z,12.16
2019-05-30T00:46:04.314Z,12.03
2019-05-30T00:51:08.565Z,11.93
2019-05-30T00:56:12.785Z,11.84
2019-05-30T01:01:16.989Z,11.74
2019-05-30T01:06:21.194Z,11.78
2019-05-30T01:11:25.355Z,11.71
2019-05-30T01:16:29.557Z,11.62
2019-05-30T01:21:33.770Z,11.62
2019-05-30T01:26:37.953Z,11.66
2019-05-30T01:31:42.183Z,11.58
2019-05-30T01:36:46.376Z,11.41
2019-05-30T01:41:50.606Z,11.36
2019-05-30T01:46:54.791Z,11.38
2019-05-30T01:52:00.280Z,11.18
2019-05-30T01:57:04.945Z,11.11
2019-05-30T02:02:09.658Z,10.98
2019-05-30T02:07:13.852Z,10.97
2019-05-30T02:12:18.025Z,10.98
2019-05-30T02:17:22.216Z,10.90
2019-05-30T02:22:26.486Z,10.85
2019-05-30T02:27:30.672Z,10.79
2019-05-30T02:32:34.871Z,10.67
2019-05-30T02:37:39.051Z,10.71
2019-05-30T02:42:43.242Z,10.63
2019-05-30T02:47:47.445Z,10.67
2019-05-30T02:52:51.629Z,10.63
2019-05-30T02:57:55.831Z,10.57
2019-05-30T03:03:01.766Z,10.60
2019-05-30T03:08:09.031Z,10.60
2019-05-30T03:13:13.007Z,10.58
2019-05-30T03:18:17.456Z,10.48
2019-05-30T03:23:21.686Z,10.40
2019-05-30T03:28:25.878Z,10.41
2019-05-30T03:33:39.423Z,10.56
2019-05-30T03:38:35.988Z,10.47
2019-05-30T03:43:40.189Z,10.45
2019-05-30T03:48:47.827Z,10.43
2019-05-30T03:53:52.779Z,10.30
2019-05-30T03:59:20.736Z,10.35
2019-05-30T04:04:29.395Z,10.31
2019-05-30T04:09:36.314Z,10.36
2019-05-30T04:14:43.707Z,10.45
2019-05-30T04:19:47.889Z,10.49
2019-05-30T04:24:52.129Z,10.47
2019-05-30T04:29:56.338Z,10.56
2019-05-30T04:35:00.518Z,10.65
2019-05-30T04:40:05.307Z,10.72
2019-05-30T04:45:11.695Z,10.80
2019-05-30T04:50:16.485Z,10.75
2019-05-30T04:55:23.014Z,11.01
2019-05-30T05:00:26.944Z,11.11
2019-05-30T05:05:31.144Z,11.20
2019-05-30T05:10:35.317Z,11.40
2019-05-30T05:15:39.504Z,11.34
2019-05-30T05:20:43.727Z,11.38
2019-05-30T05:26:00.298Z,11.54
2019-05-30T05:30:53.868Z,11.74
2019-05-30T05:35:58.081Z,11.89
2019-05-30T05:41:02.286Z,11.95
2019-05-30T05:46:06.521Z,12.14
2019-05-30T05:51:10.730Z,12.37
2019-05-30T05:56:14.921Z,12.62
2019-05-30T06:01:19.444Z,12.60
2019-05-30T06:06:23.783Z,12.66
2019-05-30T06:11:28.906Z,12.89
2019-05-30T06:16:33.273Z,13.10
2019-05-30T06:21:52.779Z,13.30
2019-05-30T06:26:43.376Z,13.41
2019-05-30T06:31:47.607Z,13.53
2019-05-30T06:36:51.808Z,13.72
2019-05-30T06:41:55.994Z,13.75
2019-05-30T06:47:00.195Z,14.09
2019-05-30T06:52:04.404Z,14.39
2019-05-30T06:57:08.654Z,14.55
2019-05-30T07:02:12.859Z,14.58
2019-05-30T07:07:17.466Z,14.50
2019-05-30T07:12:22.803Z,14.62
2019-05-30T07:17:27.447Z,15.07
2019-05-30T07:22:31.893Z,15.15
2019-05-30T07:27:36.312Z,15.21
2019-05-30T07:32:40.545Z,15.46
2019-05-30T07:37:46.642Z,15.68
2019-05-30T07:42:50.667Z,15.89
2019-05-30T07:47:54.864Z,16.27
2019-05-30T07:52:59.049Z,16.25
2019-05-30T07:58:03.262Z,16.46
2019-05-30T08:03:07.474Z,16.30
2019-05-30T08:08:11.677Z,16.12
2019-05-30T08:13:15.949Z,16.47
2019-05-30T08:18:20.146Z,16.59
2019-05-30T08:23:24.380Z,17.63
2019-05-30T08:28:28.830Z,17.89
2019-05-30T08:33:33.618Z,18.21
2019-05-30T08:38:37.911Z,18.05
2019-05-30T08:43:42.159Z,17.66
2019-05-30T08:48:46.367Z,18.02
2019-05-30T08:53:50.583Z,18.33
2019-05-30T08:58:54.844Z,18.82
2019-05-30T09:03:59.080Z,18.92
2019-05-30T09:09:03.619Z,17.88
2019-05-30T09:14:07.836Z,17.98
2019-05-30T09:19:12.093Z,18.34
2019-05-30T09:24:16.296Z,18.46
2019-05-30T09:29:20.506Z,18.47
2019-05-30T09:34:24.726Z,18.61
2019-05-30T09:39:29.835Z,18.64
2019-05-30T09:44:34.123Z,18.52
2019-05-30T09:49:38.333Z,18.56
2019-05-30T09:54:43.072Z,18.35
2019-05-30T09:59:48.671Z,18.26
2019-05-30T10:04:54.381Z,18.42
2019-05-30T10:09:58.609Z,18.57
2019-05-30T10:15:03.058Z,18.75
2019-05-30T10:20:08.098Z,18.88
2019-05-30T10:25:12.738Z,18.97
2019-05-30T10:30:17.528Z,19.23
2019-05-30T10:35:22.043Z,19.61
2019-05-30T10:40:26.452Z,19.79
2019-05-30T10:45:30.809Z,19.88
2019-05-30T10:50:35.013Z,19.98
2019-05-30T10:55:39.329Z,20.43
2019-05-30T11:00:48.970Z,20.85
2019-05-30T11:06:15.805Z,20.86
2019-05-30T11:11:20.033Z,20.68
2019-05-30T11:16:24.255Z,20.77
2019-05-30T11:21:28.459Z,21.62
2019-05-30T11:26:32.715Z,22.05
2019-05-30T11:31:36.939Z,21.51
2019-05-30T11:36:41.154Z,22.55
2019-05-30T11:41:45.342Z,22.84
2019-05-30T11:46:49.579Z,23.16
2019-05-30T11:51:53.859Z,23.87
2019-05-30T11:56:58.182Z,22.97
2019-05-30T12:02:02.431Z,23.97
2019-05-30T12:07:06.651Z,23.79
2019-05-30T12:12:11.129Z,24.07
2019-05-30T12:17:15.347Z,25.13
2019-05-30T12:22:19.545Z,24.77
2019-05-30T12:27:23.799Z,25.61
2019-05-30T12:32:28.130Z,25.00
2019-05-30T12:37:32.334Z,24.54
2019-05-30T12:42:36.534Z,23.81
2019-05-30T12:47:40.730Z,24.59
2019-05-30T12:52:44.928Z,24.05
2019-05-30T12:57:49.250Z,24.99
2019-05-30T13:02:54.622Z,24.61
2019-05-30T13:08:16.499Z,25.40
2019-05-30T13:13:06.177Z,24.58
2019-05-30T13:18:10.470Z,25.25
2019-05-30T13:23:14.644Z,24.62
2019-05-30T13:28:18.856Z,25.24
2019-05-30T13:33:23.103Z,25.82
2019-05-30T13:38:27.311Z,25.84
2019-05-30T13:43:31.513Z,26.99
2019-05-30T13:48:35.755Z,27.08
2019-05-30T13:53:39.958Z,26.59
2019-05-30T13:58:44.176Z,25.52
2019-05-30T14:03:48.471Z,25.03
2019-05-30T14:08:52.642Z,24.79
2019-05-30T14:13:56.829Z,25.50
2019-05-30T14:19:01.113Z,25.33
2019-05-30T14:24:05.386Z,27.47
2019-05-30T14:29:09.845Z,26.61
2019-05-30T14:34:14.070Z,25.27
2019-05-30T14:39:18.988Z,24.54
2019-05-30T14:44:23.743Z,25.24
2019-05-30T14:49:27.997Z,26.02
2019-05-30T14:54:32.204Z,23.99
2019-05-30T14:59:36.404Z,25.93
2019-05-30T15:04:40.613Z,25.90
2019-05-30T15:09:44.841Z,24.86
2019-05-30T15:14:49.046Z,24.87
2019-05-30T15:19:53.300Z,24.42
2019-05-30T15:24:57.487Z,24.40
2019-05-30T15:30:01.721Z,24.38
2019-05-30T15:35:08.648Z,24.26
2019-05-30T15:40:15.171Z,23.94
2019-05-30T15:45:19.631Z,24.18
2019-05-30T15:50:23.816Z,24.15
2019-05-30T15:55:28.103Z,23.89
2019-05-30T16:00:32.311Z,23.16
2019-05-30T16:05:36.528Z,23.51
2019-05-30T16:10:40.735Z,23.19
2019-05-30T16:15:45.082Z,23.27
2019-05-30T16:20:49.309Z,22.98
2019-05-30T16:25:53.753Z,23.12
2019-05-30T16:30:58.148Z,22.61
2019-05-30T16:36:02.549Z,22.71
2019-05-30T16:41:06.765Z,22.44
2019-05-30T16:46:10.992Z,22.73
2019-05-30T16:51:15.185Z,22.68
2019-05-30T16:56:19.467Z,22.41
2019-05-30T17:01:24.200Z,22.67
2019-05-30T17:06:28.562Z,22.41
2019-05-30T17:11:32.859Z,22.60
2019-05-30T17:16:37.129Z,22.77
2019-05-30T17:21:41.420Z,22.85
2019-05-30T17:26:45.720Z,22.95
2019-05-30T17:31:49.951Z,22.46
2019-05-30T17:36:54.135Z,22.11
2019-05-30T17:41:58.419Z,21.08
2019-05-30T17:47:02.644Z,20.98
2019-05-30T17:52:06.850Z,21.28
2019-05-30T17:57:11.074Z,20.74
2019-05-30T18:02:15.330Z,20.63
2019-05-30T18:07:20.737Z,20.78
2019-05-30T18:12:25.224Z,21.01
2019-05-30T18:17:29.428Z,20.75
2019-05-30T18:22:34.476Z,20.32
2019-05-30T18:27:38.748Z,20.32
2019-05-30T18:32:42.961Z,20.60
2019-05-30T18:37:47.191Z,20.46
2019-05-30T18:42:51.410Z,20.29
2019-05-30T18:47:55.646Z,20.00
2019-05-30T18:52:59.865Z,19.96
2019-05-30T18:58:07.299Z,19.91
2019-05-30T19:03:10.343Z,19.58
2019-05-30T19:08:14.563Z,19.58
2019-05-30T19:13:18.788Z,19.80
2019-05-30T19:18:23.000Z,19.55
2019-05-30T19:23:27.987Z,19.47
2019-05-30T19:28:32.594Z,19.54
2019-05-30T19:33:37.123Z,19.54
2019-05-30T19:38:41.470Z,19.65
2019-05-30T19:43:45.696Z,19.68
2019-05-30T19:48:49.895Z,19.56
2019-05-30T19:53:54.092Z,19.52
2019-05-30T19:58:58.316Z,19.45
2019-05-30T20:04:02.524Z,19.38
2019-05-30T20:09:09.067Z,19.31
2019-05-30T20:14:13.260Z,19.25
2019-05-30T20:19:17.506Z,19.25
2019-05-30T20:24:21.762Z,19.17
2019-05-30T20:29:25.977Z,18.97
2019-05-30T20:34:30.223Z,18.77
2019-05-30T20:39:34.746Z,18.89
2019-05-30T20:44:38.995Z,18.87
2019-05-30T20:49:43.451Z,18.85
2019-05-30T20:54:47.785Z,18.84
2019-05-30T20:59:52.977Z,18.75
2019-05-30T21:04:58.121Z,18.67
2019-05-30T21:10:03.533Z,18.66
2019-05-30T21:15:08.310Z,18.62
2019-05-30T21:20:12.557Z,18.51
2019-05-30T21:25:16.789Z,18.46
2019-05-30T21:30:21.099Z,18.51
2019-05-30T21:35:25.484Z,18.43
2019-05-30T21:40:29.658Z,18.44
2019-05-30T21:45:33.865Z,18.39
2019-05-30T21:50:39.297Z,18.31
2019-05-30T21:55:44.040Z,18.29
2019-05-30T22:01:35.702Z,18.25
2019-05-30T22:06:41.205Z,18.18
2019-05-30T22:11:45.672Z,18.22
2019-05-30T22:16:50.321Z,18.16
2019-05-30T22:21:54.667Z,18.14
2019-05-30T22:26:58.882Z,18.10
2019-05-30T22:32:03.140Z,18.12
2019-05-30T22:37:07.329Z,18.04
2019-05-30T22:42:11.555Z,18.02
2019-05-30T22:47:15.764Z,18.08
2019-05-30T22:52:19.974Z,17.83
2019-05-30T22:57:24.177Z,17.91
2019-05-30T23:02:28.406Z,17.94
2019-05-30T23:07:32.591Z,17.81
2019-05-30T23:12:36.791Z,17.82
2019-05-30T23:17:41.012Z,17.77
2019-05-30T23:22:45.304Z,17.77
2019-05-30T23:27:49.596Z,17.83
2019-05-30T23:32:54.201Z,17.71
2019-05-30T23:37:58.864Z,17.67
2019-05-30T23:43:03.082Z,17.70
2019-05-30T23:48:07.281Z,17.69
2019-05-30T23:53:11.470Z,17.63
2019-05-30T23:58:15.683Z,17.56
